createdAt,value
2022-11-09T00:01:49.702Z,87.98
2022-11-09T00:05:13.366Z,88.78
2022-11-09T00:08:39.411Z,88.38
2022-11-09T00:12:04.789Z,87.69
2022-11-09T00:15:26.302Z,87.91
2022-11-09T00:18:48.506Z,87.98
2022-11-09T00:22:10.056Z,88.71
2022-11-09T00:25:31.642Z,88.60
2022-11-09T00:28:58.006Z,88.56
2022-11-09T00:32:27.820Z,88.35
2022-11-09T00:35:51.765Z,88.77
2022-11-09T00:39:13.447Z,88.89
2022-11-09T00:42:34.941Z,88.08
2022-11-09T00:45:56.756Z,88.35
2022-11-09T00:49:20.595Z,88.25
2022-11-09T00:52:42.118Z,88.27
2022-11-09T00:56:11.225Z,88.11
2022-11-09T00:59:32.957Z,88.48
2022-11-09T01:02:54.475Z,88.51
2022-11-09T01:06:24.457Z,88.37
2022-11-09T01:09:45.959Z,88.70
2022-11-09T01:13:07.489Z,88.50
2022-11-09T01:16:29.073Z,88.89
2022-11-09T01:19:55.493Z,88.83
2022-11-09T01:23:18.815Z,88.90
2022-11-09T01:26:40.553Z,88.72
2022-11-09T01:30:04.541Z,88.19
2022-11-09T01:33:28.312Z,88.36
2022-11-09T01:36:52.914Z,88.21
2022-11-09T01:40:14.421Z,87.61
2022-11-09T01:43:36.049Z,88.24
2022-11-09T01:46:57.539Z,88.10
2022-11-09T01:50:30.920Z,88.70
2022-11-09T01:54:05.514Z,88.53
2022-11-09T01:57:51.484Z,88.66
2022-11-09T02:01:16.042Z,88.81
2022-11-09T02:04:44.990Z,88.16
2022-11-09T02:08:10.740Z,88.52
2022-11-09T02:11:32.418Z,89.06
2022-11-09T02:14:57.215Z,89.17
2022-11-09T02:18:22.513Z,88.63
2022-11-09T02:21:46.305Z,88.49
2022-11-09T02:25:09.591Z,88.70
2022-11-09T02:28:32.387Z,88.66
2022-11-09T02:31:59.785Z,88.42
2022-11-09T02:35:22.511Z,88.43
2022-11-09T02:38:44.127Z,88.47
2022-11-09T02:42:11.054Z,88.41
2022-11-09T02:45:32.988Z,88.85
2022-11-09T02:48:54.502Z,88.45
2022-11-09T02:52:19.076Z,88.09
2022-11-09T02:55:40.603Z,87.99
2022-11-09T02:59:03.363Z,88.39
2022-11-09T03:02:25.078Z,88.36
2022-11-09T03:05:46.567Z,88.42
2022-11-09T03:09:10.579Z,88.45
2022-11-09T03:12:32.126Z,87.88
2022-11-09T03:15:53.706Z,87.85
2022-11-09T03:19:15.533Z,87.88
2022-11-09T03:22:39.422Z,87.51
2022-11-09T03:26:00.975Z,87.51
2022-11-09T03:29:22.649Z,87.87
2022-11-09T03:32:50.424Z,87.29
2022-11-09T03:36:15.325Z,87.01
2022-11-09T03:39:36.833Z,86.75
2022-11-09T03:43:03.675Z,88.12
2022-11-09T03:46:25.178Z,87.94
2022-11-09T03:49:46.745Z,87.58
2022-11-09T03:53:11.282Z,87.79
2022-11-09T03:56:32.830Z,86.91
2022-11-09T03:59:58.809Z,87.16
2022-11-09T04:03:20.860Z,86.67
2022-11-09T04:06:42.689Z,87.00
2022-11-09T04:10:07.708Z,86.67
2022-11-09T04:13:29.222Z,87.13
2022-11-09T04:16:53.218Z,87.30
2022-11-09T04:20:14.730Z,87.84
2022-11-09T04:23:36.293Z,86.86
2022-11-09T04:27:00.298Z,86.91
2022-11-09T04:30:22.016Z,87.40
2022-11-09T04:33:43.511Z,87.97
2022-11-09T04:37:05.077Z,87.71
2022-11-09T04:40:28.586Z,87.72
2022-11-09T04:43:52.610Z,87.98
2022-11-09T04:47:16.199Z,88.24
2022-11-09T04:50:40.142Z,88.51
2022-11-09T04:54:01.700Z,88.07
2022-11-09T04:57:23.297Z,88.52
2022-11-09T05:00:44.813Z,88.54
2022-11-09T05:04:06.576Z,88.36
2022-11-09T05:07:28.114Z,88.28
2022-11-09T05:10:49.672Z,88.47
2022-11-09T05:14:11.155Z,88.45
2022-11-09T05:17:35.045Z,88.25
2022-11-09T05:21:00.440Z,88.24
2022-11-09T05:24:24.383Z,88.21
2022-11-09T05:27:45.880Z,88.37
2022-11-09T05:31:07.907Z,88.81
2022-11-09T05:34:31.762Z,88.45
2022-11-09T05:37:55.839Z,88.66
2022-11-09T05:41:17.546Z,89.16
2022-11-09T05:44:39.112Z,89.15
2022-11-09T05:48:03.692Z,89.13
2022-11-09T05:51:30.313Z,88.79
2022-11-09T05:54:54.025Z,88.81
2022-11-09T05:58:17.905Z,88.85
2022-11-09T06:01:42.158Z,89.28
2022-11-09T06:05:06.659Z,89.19
2022-11-09T06:08:32.696Z,88.76
2022-11-09T06:11:56.502Z,88.95
2022-11-09T06:15:17.983Z,89.33
2022-11-09T06:18:39.545Z,90.02
2022-11-09T06:22:01.043Z,89.36
2022-11-09T06:25:23.126Z,89.40
2022-11-09T06:28:44.700Z,88.60
2022-11-09T06:32:06.651Z,89.19
2022-11-09T06:35:28.995Z,89.15
2022-11-09T06:38:58.153Z,88.60
2022-11-09T06:42:19.685Z,89.08
2022-11-09T06:45:43.557Z,88.90
2022-11-09T06:49:05.152Z,88.49
2022-11-09T06:52:26.740Z,88.10
2022-11-09T06:55:50.940Z,87.83
2022-11-09T06:59:12.678Z,87.81
2022-11-09T07:02:34.178Z,87.91
2022-11-09T07:06:06.596Z,88.27
2022-11-09T07:09:28.129Z,87.71
2022-11-09T07:12:52.156Z,87.59
2022-11-09T07:16:17.226Z,87.91
2022-11-09T07:19:39.234Z,87.33
2022-11-09T07:23:00.753Z,87.17
2022-11-09T07:26:24.433Z,87.64
2022-11-09T07:29:48.625Z,87.99
2022-11-09T07:33:22.923Z,88.22
2022-11-09T07:36:44.708Z,88.52
2022-11-09T07:40:06.949Z,88.67
2022-11-09T07:43:29.467Z,88.93
2022-11-09T07:46:51.049Z,89.05
2022-11-09T07:50:12.629Z,89.11
2022-11-09T07:53:39.014Z,89.33
2022-11-09T07:57:02.846Z,89.11
2022-11-09T08:00:25.282Z,88.74
2022-11-09T08:03:46.781Z,88.79
2022-11-09T08:07:08.582Z,88.40
2022-11-09T08:10:31.797Z,88.96
2022-11-09T08:13:53.359Z,88.93
2022-11-09T08:17:18.395Z,89.30
2022-11-09T08:20:40.338Z,88.77
2022-11-09T08:24:05.594Z,89.12
2022-11-09T08:27:39.978Z,88.64
2022-11-09T08:31:03.982Z,88.37
2022-11-09T08:34:28.043Z,89.33
2022-11-09T08:37:52.173Z,89.37
2022-11-09T08:41:14.373Z,89.54
2022-11-09T08:44:36.066Z,89.19
2022-11-09T08:48:01.611Z,89.79
2022-11-09T08:51:23.134Z,96.00
2022-11-09T08:54:44.718Z,97.12
2022-11-09T08:58:06.282Z,92.82
2022-11-09T09:01:27.918Z,90.19
2022-11-09T09:04:49.438Z,87.58
2022-11-09T09:08:15.847Z,87.78
2022-11-09T09:11:42.615Z,82.93
2022-11-09T09:15:06.824Z,83.57
2022-11-09T09:18:31.090Z,84.81
2022-11-09T09:21:52.649Z,86.12
2022-11-09T09:25:14.197Z,86.90
2022-11-09T09:28:39.030Z,87.87
2022-11-09T09:32:05.349Z,87.06
2022-11-09T09:35:31.899Z,87.78
2022-11-09T09:38:54.366Z,87.42
2022-11-09T09:42:31.712Z,88.20
2022-11-09T09:45:54.585Z,87.40
2022-11-09T09:49:25.578Z,87.23
2022-11-09T09:53:17.731Z,87.72
2022-11-09T09:56:39.859Z,88.13
2022-11-09T10:00:05.347Z,87.40
2022-11-09T10:03:29.131Z,87.46
2022-11-09T10:07:17.610Z,89.62
2022-11-09T10:10:55.677Z,91.76
2022-11-09T10:14:41.628Z,91.49
2022-11-09T10:18:06.246Z,87.48
2022-11-09T10:22:01.077Z,87.82
2022-11-09T10:25:44.001Z,88.87
2022-11-09T10:29:34.495Z,85.12
2022-11-09T10:33:09.298Z,82.77
2022-11-09T10:36:41.630Z,82.98
2022-11-09T10:40:52.928Z,83.91
2022-11-09T10:44:17.754Z,84.79
2022-11-09T10:47:50.883Z,86.06
2022-11-09T10:51:32.610Z,86.41
2022-11-09T10:54:55.873Z,86.24
2022-11-09T10:58:54.510Z,86.75
2022-11-09T11:02:29.017Z,87.24
2022-11-09T11:05:59.064Z,87.34
2022-11-09T11:09:25.449Z,87.68
2022-11-09T11:12:51.937Z,87.13
2022-11-09T11:16:32.313Z,87.55
2022-11-09T11:20:13.792Z,93.53
2022-11-09T11:23:37.012Z,90.35
2022-11-09T11:27:31.231Z,90.61
2022-11-09T11:30:57.571Z,87.21
2022-11-09T11:34:38.391Z,88.75
2022-11-09T11:38:17.281Z,87.47
2022-11-09T11:42:02.629Z,84.37
2022-11-09T11:45:41.159Z,85.30
2022-11-09T11:49:08.705Z,86.29
2022-11-09T11:52:48.110Z,86.72
2022-11-09T11:56:34.005Z,87.66
2022-11-09T12:00:13.439Z,87.95
2022-11-09T12:03:56.086Z,88.39
2022-11-09T12:07:34.064Z,88.48
2022-11-09T12:11:26.432Z,88.24
2022-11-09T12:15:12.382Z,89.66
2022-11-09T12:18:46.422Z,89.20
2022-11-09T12:22:46.829Z,86.78
2022-11-09T12:26:17.047Z,83.67
2022-11-09T12:29:52.912Z,86.32
2022-11-09T12:33:23.620Z,79.33
2022-11-09T12:37:03.730Z,81.19
2022-11-09T12:40:39.161Z,82.59
2022-11-09T12:44:18.225Z,84.07
2022-11-09T12:47:43.877Z,86.59
2022-11-09T12:51:08.094Z,87.12
2022-11-09T12:54:29.728Z,87.35
2022-11-09T12:58:00.448Z,87.80
2022-11-09T13:01:35.123Z,87.91
2022-11-09T13:05:26.169Z,88.31
2022-11-09T13:09:15.708Z,88.58
2022-11-09T13:12:42.722Z,88.91
2022-11-09T13:16:07.252Z,89.18
2022-11-09T13:19:34.606Z,88.65
2022-11-09T13:22:56.073Z,88.62
2022-11-09T13:26:46.951Z,89.43
2022-11-09T13:30:28.818Z,89.48
2022-11-09T13:34:28.995Z,88.92
2022-11-09T13:37:56.696Z,89.61
2022-11-09T13:41:30.654Z,88.98
2022-11-09T13:44:55.472Z,89.08
2022-11-09T13:48:32.165Z,89.02
2022-11-09T13:51:54.330Z,89.09
2022-11-09T13:55:30.349Z,89.04
2022-11-09T13:58:54.186Z,88.77
2022-11-09T14:02:25.362Z,88.61
2022-11-09T14:05:50.607Z,88.21
2022-11-09T14:09:23.061Z,88.43
2022-11-09T14:13:06.344Z,88.85
2022-11-09T14:16:41.856Z,89.07
2022-11-09T14:20:30.103Z,96.51
2022-11-09T14:23:51.693Z,95.94
2022-11-09T14:27:16.971Z,95.09
2022-11-09T14:30:45.023Z,91.26
2022-11-09T14:34:07.720Z,87.11
2022-11-09T14:37:29.273Z,85.69
2022-11-09T14:40:53.444Z,86.82
2022-11-09T14:44:32.299Z,81.90
2022-11-09T14:47:57.607Z,83.50
2022-11-09T14:51:19.986Z,85.58
2022-11-09T14:54:44.790Z,85.84
2022-11-09T14:58:13.099Z,87.12
2022-11-09T15:01:34.696Z,87.72
2022-11-09T15:04:59.124Z,87.77
2022-11-09T15:08:22.588Z,87.81
2022-11-09T15:11:45.502Z,88.09
2022-11-09T15:15:21.003Z,93.89
2022-11-09T15:18:45.770Z,93.50
2022-11-09T15:22:47.495Z,92.00
2022-11-09T15:26:26.373Z,90.80
2022-11-09T15:29:47.890Z,86.09
2022-11-09T15:33:31.779Z,89.08
2022-11-09T15:36:55.015Z,88.30
2022-11-09T15:40:23.028Z,87.36
2022-11-09T15:43:46.789Z,87.09
2022-11-09T15:47:25.063Z,83.70
2022-11-09T15:50:48.782Z,84.85
2022-11-09T15:54:10.802Z,85.13
2022-11-09T15:57:32.804Z,86.85
2022-11-09T16:00:54.424Z,87.60
2022-11-09T16:04:16.001Z,88.93
2022-11-09T16:07:40.474Z,88.90
2022-11-09T16:11:08.083Z,88.78
2022-11-09T16:14:32.709Z,88.86
2022-11-09T16:17:54.327Z,89.27
2022-11-09T16:21:17.442Z,91.85
2022-11-09T16:24:39.154Z,91.81
2022-11-09T16:28:00.705Z,92.52
2022-11-09T16:31:48.144Z,91.13
2022-11-09T16:38:52.754Z,89.35
2022-11-09T16:42:15.738Z,88.30
2022-11-09T16:45:37.250Z,87.52
2022-11-09T16:49:01.647Z,82.93
2022-11-09T16:52:23.272Z,83.90
2022-11-09T16:55:44.815Z,85.45
2022-11-09T16:59:06.359Z,86.71
2022-11-09T17:02:28.159Z,87.16
2022-11-09T17:05:51.977Z,87.93
2022-11-09T17:09:13.891Z,88.35
2022-11-09T17:12:40.227Z,88.59
2022-11-09T17:16:05.585Z,88.51
2022-11-09T17:19:32.615Z,88.03
2022-11-09T17:22:54.301Z,88.72
2022-11-09T17:26:18.565Z,89.06
2022-11-09T17:29:40.476Z,89.50
2022-11-09T17:33:04.466Z,93.36
2022-11-09T17:36:56.956Z,94.30
2022-11-09T17:40:10.496Z,91.29
2022-11-09T17:43:33.914Z,90.67
2022-11-09T17:46:55.423Z,89.31
2022-11-09T17:50:21.221Z,88.45
2022-11-09T17:53:47.879Z,83.69
2022-11-09T17:57:12.046Z,84.10
2022-11-09T18:00:34.168Z,84.98
2022-11-09T18:03:58.755Z,85.87
2022-11-09T18:07:20.391Z,86.65
2022-11-09T18:10:45.534Z,87.31
2022-11-09T18:14:11.089Z,87.87
2022-11-09T18:17:37.328Z,88.35
2022-11-09T18:20:58.948Z,88.69
2022-11-09T18:24:22.818Z,88.86
2022-11-09T18:27:47.283Z,89.04
2022-11-09T18:31:15.243Z,88.67
2022-11-09T18:34:38.989Z,91.40
2022-11-09T18:38:02.791Z,93.48
2022-11-09T18:41:25.131Z,91.92
2022-11-09T18:44:49.016Z,90.49
2022-11-09T18:48:10.520Z,88.57
2022-11-09T18:51:32.062Z,87.43
2022-11-09T18:54:53.578Z,84.00
2022-11-09T18:58:18.980Z,85.33
2022-11-09T19:01:45.521Z,85.73
2022-11-09T19:05:08.492Z,86.55
2022-11-09T19:08:48.576Z,87.13
2022-11-09T19:12:14.795Z,87.94
2022-11-09T19:15:43.811Z,88.32
2022-11-09T19:19:06.539Z,88.78
2022-11-09T19:22:29.154Z,89.10
2022-11-09T19:25:50.732Z,89.14
2022-11-09T19:29:14.526Z,89.39
2022-11-09T19:32:38.381Z,89.35
2022-11-09T19:36:28.493Z,89.30
2022-11-09T19:39:45.233Z,89.56
2022-11-09T19:43:08.985Z,89.61
2022-11-09T19:46:34.841Z,89.60
2022-11-09T19:49:58.730Z,89.77
2022-11-09T19:53:20.296Z,89.59
2022-11-09T19:56:43.818Z,89.74
2022-11-09T20:00:07.402Z,89.90
2022-11-09T20:03:29.274Z,89.66
2022-11-09T20:06:53.480Z,89.63
2022-11-09T20:10:16.201Z,89.96
2022-11-09T20:13:39.436Z,90.03
2022-11-09T20:17:03.589Z,90.11
2022-11-09T20:20:27.810Z,90.27
2022-11-09T20:23:49.445Z,90.20
2022-11-09T20:27:11.013Z,89.79
2022-11-09T20:30:36.125Z,90.84
2022-11-09T20:33:57.706Z,90.79
2022-11-09T20:37:19.247Z,90.44
2022-11-09T20:40:41.154Z,90.31
2022-11-09T20:44:04.898Z,90.32
2022-11-09T20:47:57.184Z,90.20
2022-11-09T20:51:16.413Z,89.96
2022-11-09T20:54:40.257Z,90.23
2022-11-09T20:58:01.755Z,90.28
2022-11-09T21:01:26.166Z,90.19
2022-11-09T21:04:50.458Z,90.22
2022-11-09T21:08:15.106Z,90.19
2022-11-09T21:11:57.670Z,90.18
2022-11-09T21:15:21.555Z,90.16
2022-11-09T21:18:43.433Z,90.18
2022-11-09T21:22:04.950Z,90.39
2022-11-09T21:25:44.663Z,90.14
2022-11-09T21:29:27.654Z,90.31
2022-11-09T21:32:52.625Z,90.26
2022-11-09T21:36:14.697Z,90.04
2022-11-09T21:39:36.249Z,90.10
2022-11-09T21:43:00.131Z,90.10
2022-11-09T21:46:23.127Z,90.05
2022-11-09T21:49:44.667Z,90.21
2022-11-09T21:53:06.150Z,90.26
2022-11-09T21:56:30.820Z,90.15
2022-11-09T21:59:52.427Z,90.14
2022-11-09T22:03:16.437Z,90.30
2022-11-09T22:06:44.517Z,90.16
2022-11-09T22:10:10.356Z,90.36
2022-11-09T22:13:50.837Z,90.04
2022-11-09T22:17:12.629Z,90.27
2022-11-09T22:20:52.797Z,90.12
2022-11-09T22:24:14.329Z,90.22
2022-11-09T22:27:38.543Z,90.11
2022-11-09T22:31:04.023Z,89.83
2022-11-09T22:34:25.526Z,90.27
2022-11-09T22:37:49.768Z,90.08
2022-11-09T22:41:14.106Z,89.89
2022-11-09T22:44:35.691Z,89.84
2022-11-09T22:47:59.411Z,90.25
2022-11-09T22:51:23.260Z,90.52
2022-11-09T22:54:44.747Z,90.32
2022-11-09T22:58:08.982Z,90.30
2022-11-09T23:01:33.001Z,90.08
2022-11-09T23:04:56.798Z,90.16
2022-11-09T23:08:20.764Z,90.55
2022-11-09T23:11:44.741Z,90.47
2022-11-09T23:15:08.670Z,90.53
2022-11-09T23:18:49.104Z,90.38
2022-11-09T23:22:10.610Z,90.42
2022-11-09T23:25:50.821Z,90.51
2022-11-09T23:29:12.307Z,90.47
2022-11-09T23:32:33.815Z,90.25
2022-11-09T23:35:56.759Z,90.45
2022-11-09T23:39:20.627Z,90.23
2022-11-09T23:42:44.526Z,90.53
2022-11-09T23:46:08.494Z,90.39
2022-11-09T23:49:29.995Z,90.42
2022-11-09T23:52:51.756Z,90.51
2022-11-09T23:56:13.254Z,90.44
2022-11-09T23:59:34.771Z,90.66
